sensor_id;sensor_type;location;lat;lon;timestamp;temperature;humidity
26049;DHT22;13822;51.568;5.086;2024-01-30T06:27:53;9.40;99.90
26049;DHT22;13822;51.568;5.086;2024-01-30T06:32:55;9.30;99.90
26049;DHT22;13822;51.568;5.086;2024-01-30T06:37:58;9.40;99.90
26049;DHT22;13822;51.568;5.086;2024-01-30T06:43:00;9.40;99.90
26049;DHT22;13822;51.568;5.086;2024-01-30T06:48:02;9.40;99.90
26049;DHT22;13822;51.568;5.086;2024-01-30T06:53:04;9.40;99.90
26049;DHT22;13822;51.568;5.086;2024-01-30T06:58:06;9.50;99.90
26049;DHT22;13822;51.568;5.086;2024-01-30T07:03:08;9.50;99.90
26049;DHT22;13822;51.568;5.086;2024-01-30T07:08:10;9.50;99.90
26049;DHT22;13822;51.568;5.086;2024-01-30T07:13:12;9.60;99.90
26049;DHT22;13822;51.568;5.086;2024-01-30T07:18:15;9.60;99.90
26049;DHT22;13822;51.568;5.086;2024-01-30T07:23:17;9.60;99.90
26049;DHT22;13822;51.568;5.086;2024-01-30T07:28:19;9.60;99.90
26049;DHT22;13822;51.568;5.086;2024-01-30T07:33:21;9.60;99.90
26049;DHT22;13822;51.568;5.086;2024-01-30T07:38:23;9.60;99.90
26049;DHT22;13822;51.568;5.086;2024-01-30T07:43:25;9.70;99.90
26049;DHT22;13822;51.568;5.086;2024-01-30T07:48:27;9.70;99.90
26049;DHT22;13822;51.568;5.086;2024-01-30T07:53:29;9.70;99.90
26049;DHT22;13822;51.568;5.086;2024-01-30T07:58:31;9.80;99.90
26049;DHT22;13822;51.568;5.086;2024-01-30T08:03:33;9.80;99.90
26049;DHT22;13822;51.568;5.086;2024-01-30T08:08:36;9.90;99.90
26049;DHT22;13822;51.568;5.086;2024-01-30T08:13:39;9.90;99.90
26049;DHT22;13822;51.568;5.086;2024-01-30T08:18:41;10.00;99.90
26049;DHT22;13822;51.568;5.086;2024-01-30T08:23:43;10.10;99.90
26049;DHT22;13822;51.568;5.086;2024-01-30T08:28:45;10.10;99.90
26049;DHT22;13822;51.568;5.086;2024-01-30T08:33:47;10.20;99.90
26049;DHT22;13822;51.568;5.086;2024-01-30T08:38:49;10.20;99.90
26049;DHT22;13822;51.568;5.086;2024-01-30T08:43:52;10.30;99.90
26049;DHT22;13822;51.568;5.086;2024-01-30T08:48:54;10.40;99.90
26049;DHT22;13822;51.568;5.086;2024-01-30T08:53:57;10.50;99.90
26049;DHT22;13822;51.568;5.086;2024-01-30T08:58:59;10.60;99.90
26049;DHT22;13822;51.568;5.086;2024-01-30T09:04:01;10.60;99.90
26049;DHT22;13822;51.568;5.086;2024-01-30T09:09:03;10.70;99.90
26049;DHT22;13822;51.568;5.086;2024-01-30T09:14:06;10.70;99.90
26049;DHT22;13822;51.568;5.086;2024-01-30T09:19:08;10.80;99.90
26049;DHT22;13822;51.568;5.086;2024-01-30T09:24:10;10.80;99.90
26049;DHT22;13822;51.568;5.086;2024-01-30T09:29:12;10.80;99.90
26049;DHT22;13822;51.568;5.086;2024-01-30T09:34:14;10.90;99.90
26049;DHT22;13822;51.568;5.086;2024-01-30T09:39:17;10.90;99.90
26049;DHT22;13822;51.568;5.086;2024-01-30T09:44:21;10.90;99.90
26049;DHT22;13822;51.568;5.086;2024-01-30T09:49:24;11.00;99.90
26049;DHT22;13822;51.568;5.086;2024-01-30T09:54:28;11.00;99.90
26049;DHT22;13822;51.568;5.086;2024-01-30T09:59:35;11.00;99.90
26049;DHT22;13822;51.568;5.086;2024-01-30T10:04:36;11.00;99.90
26049;DHT22;13822;51.568;5.086;2024-01-30T10:09:38;11.10;99.90
26049;DHT22;13822;51.568;5.086;2024-01-30T10:14:41;11.10;99.90
26049;DHT22;13822;51.568;5.086;2024-01-30T10:19:43;11.20;99.90
26049;DHT22;13822;51.568;5.086;2024-01-30T10:24:46;11.30;99.90
26049;DHT22;13822;51.568;5.086;2024-01-30T10:29:50;11.30;99.90
26049;DHT22;13822;51.568;5.086;2024-01-30T10:34:52;11.40;99.90
26049;DHT22;13822;51.568;5.086;2024-01-30T10:39:55;11.40;99.90
26049;DHT22;13822;51.568;5.086;2024-01-30T10:45:13;11.50;99.90
26049;DHT22;13822;51.568;5.086;2024-01-30T10:50:15;11.50;99.90
26049;DHT22;13822;51.568;5.086;2024-01-30T10:55:18;11.50;99.90
26049;DHT22;13822;51.568;5.086;2024-01-30T11:00:20;11.60;99.90
26049;DHT22;13822;51.568;5.086;2024-01-30T11:05:25;11.60;99.90
26049;DHT22;13822;51.568;5.086;2024-01-30T11:10:43;11.70;99.90
26049;DHT22;13822;51.568;5.086;2024-01-30T11:15:47;11.70;99.90
26049;DHT22;13822;51.568;5.086;2024-01-30T11:20:50;11.70;99.90
26049;DHT22;13822;51.568;5.086;2024-01-30T11:25:56;11.70;99.90
26049;DHT22;13822;51.568;5.086;2024-01-30T11:31:02;11.70;99.90
26049;DHT22;13822;51.568;5.086;2024-01-30T11:36:05;11.70;99.90
26049;DHT22;13822;51.568;5.086;2024-01-30T11:41:08;11.70;99.90
26049;DHT22;13822;51.568;5.086;2024-01-30T11:46:10;11.70;99.90
26049;DHT22;13822;51.568;5.086;2024-01-30T11:51:13;11.70;99.90
26049;DHT22;13822;51.568;5.086;2024-01-30T11:56:15;11.70;99.90
26049;DHT22;13822;51.568;5.086;2024-01-30T12:01:17;11.70;99.90
26049;DHT22;13822;51.568;5.086;2024-01-30T12:06:19;11.70;99.90
26049;DHT22;13822;51.568;5.086;2024-01-30T12:11:21;11.80;99.90
26049;DHT22;13822;51.568;5.086;2024-01-30T12:16:23;11.70;99.90
26049;DHT22;13822;51.568;5.086;2024-01-30T12:21:25;11.70;99.90
26049;DHT22;13822;51.568;5.086;2024-01-30T12:26:27;11.50;99.90
26049;DHT22;13822;51.568;5.086;2024-01-30T12:31:31;11.40;99.90
26049;DHT22;13822;51.568;5.086;2024-01-30T12:36:34;11.30;99.90
26049;DHT22;13822;51.568;5.086;2024-01-30T12:41:36;11.20;99.90
26049;DHT22;13822;51.568;5.086;2024-01-30T12:46:38;11.00;99.90
26049;DHT22;13822;51.568;5.086;2024-01-30T12:51:40;11.00;99.90
26049;DHT22;13822;51.568;5.086;2024-01-30T12:56:42;10.90;99.90
26049;DHT22;13822;51.568;5.086;2024-01-30T13:01:44;10.90;99.90
26049;DHT22;13822;51.568;5.086;2024-01-30T13:06:46;10.90;99.90
26049;DHT22;13822;51.568;5.086;2024-01-30T13:11:49;10.90;99.90
26049;DHT22;13822;51.568;5.086;2024-01-30T13:16:51;10.80;99.90
26049;DHT22;13822;51.568;5.086;2024-01-30T13:21:52;10.80;99.90
26049;DHT22;13822;51.568;5.086;2024-01-30T13:26:54;10.70;99.90
26049;DHT22;13822;51.568;5.086;2024-01-30T13:31:56;10.60;99.90
26049;DHT22;13822;51.568;5.086;2024-01-30T13:36:58;10.60;99.90
26049;DHT22;13822;51.568;5.086;2024-01-30T13:42:01;10.50;99.90
26049;DHT22;13822;51.568;5.086;2024-01-30T13:47:04;10.40;99.90
26049;DHT22;13822;51.568;5.086;2024-01-30T13:52:06;10.30;99.90
26049;DHT22;13822;51.568;5.086;2024-01-30T13:57:08;10.20;99.90
26049;DHT22;13822;51.568;5.086;2024-01-30T14:02:10;10.00;99.90
26049;DHT22;13822;51.568;5.086;2024-01-30T14:07:13;9.90;99.90
26049;DHT22;13822;51.568;5.086;2024-01-30T14:12:15;9.70;99.90
26049;DHT22;13822;51.568;5.086;2024-01-30T14:17:17;9.60;99.90
26049;DHT22;13822;51.568;5.086;2024-01-30T14:22:19;9.50;99.90
26049;DHT22;13822;51.568;5.086;2024-01-30T14:27:21;9.40;99.90
26049;DHT22;13822;51.568;5.086;2024-01-30T14:32:23;9.30;99.90
26049;DHT22;13822;51.568;5.086;2024-01-30T14:37:25;9.20;99.90
26049;DHT22;13822;51.568;5.086;2024-01-30T14:42:30;9.10;99.90
26049;DHT22;13822;51.568;5.086;2024-01-30T14:47:34;9.00;99.90
26049;DHT22;13822;51.568;5.086;2024-01-30T14:52:37;9.00;99.90
26049;DHT22;13822;51.568;5.086;2024-01-30T14:57:42;9.00;99.90
26049;DHT22;13822;51.568;5.086;2024-01-30T15:02:46;9.00;99.90
26049;DHT22;13822;51.568;5.086;2024-01-30T15:07:48;9.10;99.90
26049;DHT22;13822;51.568;5.086;2024-01-30T15:12:51;9.00;99.90
26049;DHT22;13822;51.568;5.086;2024-01-30T15:17:53;9.00;99.90
26049;DHT22;13822;51.568;5.086;2024-01-30T15:22:55;9.10;99.90
26049;DHT22;13822;51.568;5.086;2024-01-30T15:27:57;9.10;99.90
26049;DHT22;13822;51.568;5.086;2024-01-30T15:32:59;9.00;99.90
26049;DHT22;13822;51.568;5.086;2024-01-30T15:38:02;8.90;99.90
26049;DHT22;13822;51.568;5.086;2024-01-30T15:43:04;8.80;99.90
26049;DHT22;13822;51.568;5.086;2024-01-30T15:48:07;8.70;99.90
26049;DHT22;13822;51.568;5.086;2024-01-30T15:53:09;8.50;99.90
26049;DHT22;13822;51.568;5.086;2024-01-30T15:58:11;8.40;99.90
26049;DHT22;13822;51.568;5.086;2024-01-30T16:03:12;8.40;99.90
26049;DHT22;13822;51.568;5.086;2024-01-30T16:08:14;8.30;99.90
26049;DHT22;13822;51.568;5.086;2024-01-30T16:13:16;8.20;99.90
26049;DHT22;13822;51.568;5.086;2024-01-30T16:18:18;8.20;99.90
26049;DHT22;13822;51.568;5.086;2024-01-30T16:23:20;8.20;99.90
26049;DHT22;13822;51.568;5.086;2024-01-30T16:28:25;8.20;99.90
26049;DHT22;13822;51.568;5.086;2024-01-30T16:33:29;8.10;99.90
26049;DHT22;13822;51.568;5.086;2024-01-30T16:38:31;8.20;99.90
26049;DHT22;13822;51.568;5.086;2024-01-30T16:43:33;8.10;99.90
26049;DHT22;13822;51.568;5.086;2024-01-30T16:48:35;8.10;99.90
26049;DHT22;13822;51.568;5.086;2024-01-30T16:53:37;8.00;99.90
26049;DHT22;13822;51.568;5.086;2024-01-30T16:58:39;7.90;99.90
26049;DHT22;13822;51.568;5.086;2024-01-30T17:16:51;7.80;99.90
